createdAt,value
2023-05-10T00:00:39.416Z,14.55
2023-05-10T00:03:07.980Z,14.54
2023-05-10T00:05:37.680Z,14.53
2023-05-10T00:08:06.389Z,14.52
2023-05-10T00:10:34.898Z,14.49
2023-05-10T00:13:03.717Z,14.49
2023-05-10T00:15:32.485Z,14.48
2023-05-10T00:18:01.393Z,14.47
2023-05-10T00:20:29.641Z,14.45
2023-05-10T00:22:59.206Z,14.47
2023-05-10T00:25:27.524Z,14.44
2023-05-10T00:27:56.292Z,14.44
2023-05-10T00:30:24.974Z,14.43
2023-05-10T00:32:53.543Z,14.41
2023-05-10T00:35:22.559Z,14.41
2023-05-10T00:37:51.094Z,14.41
2023-05-10T00:40:20.841Z,14.40
2023-05-10T00:42:54.389Z,14.38
2023-05-10T00:45:23.131Z,14.37
2023-05-10T00:47:53.154Z,14.36
2023-05-10T00:50:22.134Z,14.37
2023-05-10T00:52:51.274Z,14.35
2023-05-10T00:55:21.035Z,14.35
2023-05-10T00:57:49.914Z,14.34
2023-05-10T01:00:19.668Z,14.34
2023-05-10T01:02:48.383Z,14.35
2023-05-10T01:05:17.600Z,14.33
2023-05-10T01:07:46.182Z,14.32
2023-05-10T01:10:15.220Z,14.32
2023-05-10T01:12:48.459Z,14.32
2023-05-10T01:15:18.262Z,14.31
2023-05-10T01:17:48.816Z,14.30
2023-05-10T01:20:17.860Z,14.29
2023-05-10T01:23:32.377Z,14.38
2023-05-10T01:26:21.629Z,14.34
2023-05-10T01:29:41.166Z,14.38
2023-05-10T01:32:34.360Z,14.37
2023-05-10T01:35:08.329Z,14.32
2023-05-10T01:37:47.332Z,14.35
2023-05-10T01:40:25.145Z,14.33
2023-05-10T01:43:01.902Z,14.31
2023-05-10T01:45:37.908Z,14.28
2023-05-10T01:48:11.006Z,14.27
2023-05-10T01:50:45.724Z,14.29
2023-05-10T01:53:15.477Z,14.27
2023-05-10T01:55:53.082Z,14.27
2023-05-10T01:58:27.039Z,14.26
2023-05-10T02:00:57.603Z,14.27
2023-05-10T02:03:30.117Z,14.28
2023-05-10T02:06:01.305Z,14.29
2023-05-10T02:08:30.192Z,14.28
2023-05-10T02:11:00.525Z,14.28
2023-05-10T02:13:31.758Z,14.28
2023-05-10T02:16:01.621Z,14.27
2023-05-10T02:18:32.978Z,14.29
2023-05-10T02:21:03.294Z,14.27
2023-05-10T02:23:32.501Z,14.30
2023-05-10T02:26:03.269Z,14.30
2023-05-10T02:28:33.010Z,14.30
2023-05-10T02:31:01.614Z,14.30
2023-05-10T02:33:33.736Z,14.33
2023-05-10T02:36:03.620Z,14.33
2023-05-10T02:38:34.559Z,14.32
2023-05-10T02:41:06.479Z,14.35
2023-05-10T02:43:35.875Z,14.33
2023-05-10T02:46:04.764Z,14.33
2023-05-10T02:48:34.503Z,14.33
2023-05-10T02:51:09.233Z,14.34
2023-05-10T02:53:40.460Z,14.49
2023-05-10T02:56:16.614Z,14.36
2023-05-10T02:58:45.192Z,14.30
2023-05-10T03:01:13.861Z,14.31
2023-05-10T03:03:43.807Z,14.33
2023-05-10T03:06:12.550Z,14.34
2023-05-10T03:08:41.405Z,14.36
2023-05-10T03:11:34.068Z,14.43
2023-05-10T03:14:22.614Z,14.39
2023-05-10T03:17:06.082Z,14.40
2023-05-10T03:19:50.762Z,14.40
2023-05-10T03:22:26.731Z,14.38
2023-05-10T03:24:58.710Z,14.37
2023-05-10T03:27:31.522Z,14.37
2023-05-10T03:30:01.758Z,14.37
2023-05-10T03:32:32.971Z,14.39
2023-05-10T03:35:03.340Z,14.38
2023-05-10T03:37:32.154Z,14.38
2023-05-10T03:40:00.724Z,14.39
2023-05-10T03:42:29.214Z,14.41
2023-05-10T03:44:57.562Z,14.41
2023-05-10T03:47:26.840Z,14.43
2023-05-10T03:49:55.382Z,14.43
2023-05-10T03:52:26.271Z,14.45
2023-05-10T03:54:54.822Z,14.43
2023-05-10T03:57:23.493Z,14.43
2023-05-10T03:59:52.083Z,14.40
2023-05-10T04:02:20.305Z,14.39
2023-05-10T04:04:49.166Z,14.36
2023-05-10T04:07:17.743Z,14.33
2023-05-10T04:09:47.333Z,14.29
2023-05-10T04:12:15.595Z,14.23
2023-05-10T04:14:44.111Z,14.19
2023-05-10T04:17:12.776Z,14.15
2023-05-10T04:19:41.361Z,14.11
2023-05-10T04:22:10.085Z,14.09
2023-05-10T04:24:38.631Z,14.08
2023-05-10T04:27:08.209Z,14.08
2023-05-10T04:29:36.687Z,14.04
2023-05-10T04:32:05.536Z,14.02
2023-05-10T04:34:35.070Z,13.98
2023-05-10T04:37:03.577Z,13.98
2023-05-10T04:39:32.080Z,13.97
2023-05-10T04:42:00.618Z,13.98
2023-05-10T04:44:30.440Z,14.02
2023-05-10T04:46:59.000Z,14.01
2023-05-10T04:49:27.554Z,14.04
2023-05-10T04:51:56.090Z,14.08
2023-05-10T04:54:24.336Z,14.08
2023-05-10T04:56:52.964Z,14.10
2023-05-10T04:59:22.100Z,14.11
2023-05-10T05:01:51.685Z,14.14
2023-05-10T05:04:20.230Z,14.15
2023-05-10T05:06:48.749Z,14.18
2023-05-10T05:09:17.327Z,14.20
2023-05-10T05:11:45.863Z,14.20
2023-05-10T05:14:14.383Z,14.21
2023-05-10T05:16:42.943Z,14.24
2023-05-10T05:19:12.527Z,14.26
2023-05-10T05:21:41.759Z,14.28
2023-05-10T05:24:11.134Z,14.33
2023-05-10T05:26:39.816Z,14.37
2023-05-10T05:29:09.103Z,14.40
2023-05-10T05:31:37.807Z,14.46
2023-05-10T05:34:06.330Z,14.51
2023-05-10T05:36:39.226Z,14.57
2023-05-10T05:39:07.890Z,14.59
2023-05-10T05:41:36.382Z,14.62
2023-05-10T05:44:04.977Z,14.66
2023-05-10T05:46:33.515Z,14.71
2023-05-10T05:49:02.287Z,14.76
2023-05-10T05:51:30.869Z,14.81
2023-05-10T05:54:00.653Z,14.89
2023-05-10T05:56:29.210Z,14.94
2023-05-10T05:58:57.553Z,15.00
2023-05-10T06:01:25.730Z,15.09
2023-05-10T06:03:54.323Z,15.14
2023-05-10T06:06:22.925Z,15.19
2023-05-10T06:08:51.496Z,15.22
2023-05-10T06:11:21.416Z,15.26
2023-05-10T06:13:49.977Z,15.29
2023-05-10T06:16:18.708Z,15.34
2023-05-10T06:18:46.932Z,15.37
2023-05-10T06:21:15.810Z,15.41
2023-05-10T06:23:44.781Z,15.46
2023-05-10T06:26:14.693Z,15.50
2023-05-10T06:28:44.383Z,15.53
2023-05-10T06:31:13.384Z,15.56
2023-05-10T06:33:42.184Z,15.58
2023-05-10T06:36:10.778Z,15.61
2023-05-10T06:38:39.362Z,15.63
2023-05-10T06:41:08.208Z,15.68
2023-05-10T06:43:37.955Z,15.71
2023-05-10T06:46:08.674Z,15.77
2023-05-10T06:48:37.320Z,15.77
2023-05-10T06:51:05.976Z,15.81
2023-05-10T06:53:34.594Z,15.84
2023-05-10T06:56:04.450Z,15.85
2023-05-10T06:58:33.879Z,15.88
2023-05-10T07:01:07.463Z,15.93
2023-05-10T07:03:36.223Z,15.91
2023-05-10T07:06:05.429Z,15.96
2023-05-10T07:08:34.275Z,15.98
2023-05-10T07:11:04.555Z,16.02
2023-05-10T07:13:33.427Z,16.03
2023-05-10T07:16:02.968Z,16.06
2023-05-10T07:18:33.315Z,16.12
2023-05-10T07:21:01.864Z,16.14
2023-05-10T07:23:30.529Z,16.14
2023-05-10T07:26:00.352Z,16.21
2023-05-10T07:28:28.925Z,16.25
2023-05-10T07:30:57.622Z,16.27
2023-05-10T07:33:26.178Z,16.32
2023-05-10T07:35:55.905Z,16.35
2023-05-10T07:38:24.455Z,16.35
2023-05-10T07:40:52.951Z,16.41
2023-05-10T07:43:21.135Z,16.44
2023-05-10T07:45:49.665Z,16.53
2023-05-10T07:48:18.176Z,16.62
2023-05-10T07:50:46.668Z,16.69
2023-05-10T07:53:16.236Z,16.78
2023-05-10T07:55:44.750Z,16.83
2023-05-10T07:58:13.246Z,16.86
2023-05-10T08:00:42.193Z,16.84
2023-05-10T08:03:10.951Z,16.89
2023-05-10T08:05:39.680Z,16.95
2023-05-10T08:08:07.915Z,16.99
2023-05-10T08:10:37.514Z,17.09
2023-05-10T08:13:05.720Z,17.20
2023-05-10T08:15:33.979Z,17.40
2023-05-10T08:18:02.267Z,17.57
2023-05-10T08:20:30.831Z,17.79
2023-05-10T08:22:59.439Z,18.12
2023-05-10T08:25:28.029Z,18.40
2023-05-10T08:27:57.593Z,18.70
2023-05-10T08:30:26.125Z,18.95
2023-05-10T08:32:54.634Z,19.16
2023-05-10T08:35:23.154Z,19.37
2023-05-10T08:37:51.371Z,19.50
2023-05-10T08:40:21.851Z,19.59
2023-05-10T08:43:01.277Z,19.61
2023-05-10T08:45:33.913Z,19.73
2023-05-10T08:48:04.305Z,20.01
2023-05-10T08:50:33.305Z,20.06
2023-05-10T08:53:05.884Z,20.01
2023-05-10T08:55:34.976Z,19.88
2023-05-10T08:58:05.405Z,19.79
2023-05-10T09:00:34.039Z,19.69
2023-05-10T09:03:03.648Z,19.63
2023-05-10T09:05:32.382Z,19.59
2023-05-10T09:08:01.480Z,19.74
2023-05-10T09:10:31.782Z,20.00
2023-05-10T09:13:00.505Z,20.16
2023-05-10T09:15:30.056Z,20.24
2023-05-10T09:18:00.368Z,20.34
2023-05-10T09:20:29.018Z,20.36
2023-05-10T09:22:57.614Z,20.36
2023-05-10T09:25:26.178Z,20.35
2023-05-10T09:27:55.111Z,20.36
2023-05-10T09:30:29.346Z,20.37
2023-05-10T09:32:59.191Z,20.39
2023-05-10T09:35:30.441Z,20.38
2023-05-10T09:38:03.149Z,20.25
2023-05-10T09:40:32.020Z,20.14
2023-05-10T09:43:02.539Z,20.12
2023-05-10T09:45:36.219Z,20.18
2023-05-10T09:48:07.537Z,20.40
2023-05-10T09:50:36.348Z,20.73
2023-05-10T09:53:05.730Z,20.83
2023-05-10T09:55:45.176Z,20.83
2023-05-10T09:58:13.981Z,20.85
2023-05-10T10:00:45.876Z,20.98
2023-05-10T10:03:19.004Z,21.17
2023-05-10T10:05:49.808Z,21.23
2023-05-10T10:08:19.995Z,21.41
2023-05-10T10:10:50.494Z,21.50
2023-05-10T10:13:19.090Z,21.55
2023-05-10T10:15:52.102Z,21.42
2023-05-10T10:18:24.774Z,21.37
2023-05-10T10:20:54.453Z,21.51
2023-05-10T10:23:22.962Z,21.60
2023-05-10T10:25:52.863Z,21.67
2023-05-10T10:28:36.938Z,21.75
2023-05-10T10:31:23.227Z,22.15
2023-05-10T10:34:03.908Z,22.57
2023-05-10T10:36:34.783Z,22.77
2023-05-10T10:39:05.087Z,23.15
2023-05-10T10:41:35.921Z,23.58
2023-05-10T10:44:37.555Z,23.82
2023-05-10T10:47:29.198Z,23.61
2023-05-10T10:50:09.779Z,23.51
2023-05-10T10:52:39.988Z,23.42
2023-05-10T10:55:10.493Z,23.23
2023-05-10T10:57:51.916Z,23.03
2023-05-10T11:00:32.350Z,22.71
2023-05-10T11:03:07.380Z,22.63
2023-05-10T11:05:42.628Z,22.65
2023-05-10T11:08:20.060Z,22.66
2023-05-10T11:11:04.866Z,22.68
2023-05-10T11:13:35.430Z,22.76
2023-05-10T11:16:19.534Z,22.97
2023-05-10T11:19:03.214Z,22.92
2023-05-10T11:21:32.525Z,22.79
2023-05-10T11:24:06.521Z,22.83
2023-05-10T11:26:37.479Z,22.91
2023-05-10T11:29:06.315Z,23.17
2023-05-10T11:31:34.987Z,23.56
2023-05-10T11:34:04.728Z,23.86
2023-05-10T11:36:37.319Z,24.19
2023-05-10T11:39:06.933Z,24.36
2023-05-10T11:41:35.737Z,24.59
2023-05-10T11:44:04.430Z,24.82
2023-05-10T11:46:33.213Z,25.00
2023-05-10T11:49:05.430Z,25.24
2023-05-10T11:51:37.217Z,25.21
2023-05-10T11:54:10.489Z,24.85
2023-05-10T11:56:39.801Z,24.58
2023-05-10T11:59:08.884Z,24.45
2023-05-10T12:01:37.996Z,24.48
2023-05-10T12:04:07.856Z,24.37
2023-05-10T12:06:43.039Z,24.05
2023-05-10T12:09:11.837Z,23.77
2023-05-10T12:11:44.234Z,23.51
2023-05-10T12:14:13.550Z,23.05
2023-05-10T12:16:42.413Z,22.77
2023-05-10T12:19:12.261Z,22.59
2023-05-10T12:21:42.432Z,22.36
2023-05-10T12:24:11.488Z,22.34
2023-05-10T12:26:39.738Z,22.47
2023-05-10T12:29:18.532Z,22.60
2023-05-10T12:31:59.832Z,22.66
2023-05-10T12:34:34.244Z,22.73
2023-05-10T12:37:03.910Z,22.65
2023-05-10T12:39:42.434Z,22.66
2023-05-10T12:42:11.769Z,22.36
2023-05-10T12:44:41.725Z,21.95
2023-05-10T12:47:10.307Z,21.72
2023-05-10T12:49:40.138Z,21.73
2023-05-10T12:52:08.717Z,21.89
2023-05-10T12:54:37.263Z,22.33
2023-05-10T12:57:05.811Z,22.85
2023-05-10T12:59:35.872Z,23.14
2023-05-10T13:02:05.378Z,23.47
2023-05-10T13:04:33.615Z,23.76
2023-05-10T13:07:04.242Z,23.99
2023-05-10T13:09:32.822Z,24.25
2023-05-10T13:12:01.420Z,24.41
2023-05-10T13:14:30.026Z,24.39
2023-05-10T13:16:58.670Z,24.45
2023-05-10T13:19:27.816Z,24.33
2023-05-10T13:21:56.446Z,24.19
2023-05-10T13:24:26.238Z,24.20
2023-05-10T13:26:54.716Z,24.15
2023-05-10T13:29:23.526Z,23.97
2023-05-10T13:31:52.274Z,24.00
2023-05-10T13:34:22.368Z,24.01
2023-05-10T13:36:51.125Z,24.05
2023-05-10T13:39:21.635Z,23.98
2023-05-10T13:41:51.809Z,23.89
2023-05-10T13:44:22.322Z,23.65
2023-05-10T13:46:50.874Z,23.51
2023-05-10T13:49:19.476Z,23.22
2023-05-10T13:51:48.147Z,22.78
2023-05-10T13:54:18.350Z,22.36
2023-05-10T13:56:48.257Z,21.95
2023-05-10T13:59:17.841Z,21.69
2023-05-10T14:01:46.439Z,21.47
2023-05-10T14:04:15.007Z,21.27
2023-05-10T14:06:43.212Z,21.11
2023-05-10T14:09:11.762Z,21.02
2023-05-10T14:11:42.702Z,21.21
2023-05-10T14:14:11.298Z,21.51
2023-05-10T14:16:43.456Z,21.99
2023-05-10T14:19:12.313Z,22.45
2023-05-10T14:21:40.653Z,22.70
2023-05-10T14:24:09.294Z,22.75
2023-05-10T14:26:37.816Z,22.88
2023-05-10T14:29:06.062Z,23.05
2023-05-10T14:31:34.839Z,23.27
2023-05-10T14:34:04.509Z,23.53
2023-05-10T14:36:33.081Z,23.72
2023-05-10T14:39:01.279Z,23.75
2023-05-10T14:41:31.172Z,23.66
2023-05-10T14:43:59.790Z,23.45
2023-05-10T14:46:28.580Z,23.27
2023-05-10T14:48:57.139Z,23.03
2023-05-10T14:51:26.943Z,22.82
2023-05-10T14:53:55.472Z,22.66
2023-05-10T14:56:23.969Z,22.57
2023-05-10T14:58:52.663Z,22.71
2023-05-10T15:01:21.753Z,23.01
2023-05-10T15:03:50.762Z,23.43
2023-05-10T15:06:24.818Z,23.78
2023-05-10T15:08:54.431Z,24.06
2023-05-10T15:11:22.683Z,24.09
2023-05-10T15:13:50.935Z,23.97
2023-05-10T15:16:19.512Z,23.76
2023-05-10T15:18:48.011Z,23.48
2023-05-10T15:21:16.749Z,23.30
2023-05-10T15:23:45.176Z,23.28
2023-05-10T15:26:14.912Z,23.59
2023-05-10T15:28:43.334Z,23.63
2023-05-10T15:31:12.213Z,23.67
2023-05-10T15:33:40.793Z,23.61
2023-05-10T15:36:09.493Z,23.63
2023-05-10T15:38:38.349Z,23.80
2023-05-10T15:41:06.962Z,23.95
2023-05-10T15:43:36.544Z,24.08
2023-05-10T15:46:06.885Z,24.17
2023-05-10T15:48:35.426Z,24.19
2023-05-10T15:51:03.941Z,24.18
2023-05-10T15:53:32.424Z,24.13
2023-05-10T15:56:00.923Z,24.29
2023-05-10T15:58:29.412Z,24.78
2023-05-10T16:00:59.319Z,25.35
2023-05-10T16:03:27.898Z,25.58
2023-05-10T16:05:56.710Z,25.57
2023-05-10T16:08:25.660Z,25.58
2023-05-10T16:10:54.444Z,25.21
2023-05-10T16:13:22.758Z,24.82
2023-05-10T16:15:51.282Z,24.61
2023-05-10T16:18:20.966Z,24.64
2023-05-10T16:20:49.610Z,24.65
2023-05-10T16:23:18.209Z,24.53
2023-05-10T16:25:46.774Z,24.30
2023-05-10T16:28:15.289Z,23.88
2023-05-10T16:30:43.543Z,23.58
2023-05-10T16:33:12.214Z,23.34
2023-05-10T16:35:42.004Z,23.19
2023-05-10T16:38:11.146Z,23.27
2023-05-10T16:40:39.806Z,23.32
2023-05-10T16:43:08.603Z,23.21
2023-05-10T16:45:37.168Z,23.05
2023-05-10T16:48:06.012Z,22.94
2023-05-10T16:50:34.552Z,22.86
2023-05-10T16:53:04.198Z,22.77
2023-05-10T16:55:32.739Z,22.67
2023-05-10T16:58:02.810Z,22.64
2023-05-10T17:00:31.118Z,22.68
2023-05-10T17:02:59.720Z,22.78
2023-05-10T17:05:28.213Z,22.81
2023-05-10T17:07:57.002Z,22.74
2023-05-10T17:10:26.564Z,22.63
2023-05-10T17:12:55.093Z,22.55
2023-05-10T17:15:23.313Z,22.40
2023-05-10T17:17:51.929Z,22.21
2023-05-10T17:20:20.835Z,22.02
2023-05-10T17:22:50.550Z,21.78
2023-05-10T17:25:19.449Z,21.58
2023-05-10T17:27:49.325Z,21.40
2023-05-10T17:30:22.481Z,21.21
2023-05-10T17:32:51.189Z,21.07
2023-05-10T17:35:19.765Z,20.92
2023-05-10T17:37:48.361Z,20.80
2023-05-10T17:40:16.808Z,20.67
2023-05-10T17:42:45.445Z,20.57
2023-05-10T17:45:15.256Z,20.50
2023-05-10T17:47:43.751Z,20.43
2023-05-10T17:50:12.381Z,20.37
2023-05-10T17:52:41.295Z,20.29
2023-05-10T17:55:10.978Z,20.22
2023-05-10T17:57:39.680Z,20.14
2023-05-10T18:00:10.452Z,20.10
2023-05-10T18:02:40.136Z,20.04
2023-05-10T18:05:09.415Z,19.97
2023-05-10T18:07:38.040Z,19.90
2023-05-10T18:10:07.899Z,19.82
2023-05-10T18:12:36.382Z,19.73
2023-05-10T18:15:05.372Z,19.65
2023-05-10T18:17:34.979Z,19.57
2023-05-10T18:20:06.047Z,19.50
2023-05-10T18:22:34.739Z,19.42
2023-05-10T18:25:03.745Z,19.38
2023-05-10T18:27:32.841Z,19.33
2023-05-10T18:30:01.051Z,19.30
2023-05-10T18:32:29.849Z,19.27
2023-05-10T18:34:58.877Z,19.22
2023-05-10T18:37:28.504Z,19.14
2023-05-10T18:39:57.650Z,19.07
2023-05-10T18:42:26.618Z,19.02
2023-05-10T18:44:55.304Z,18.97
2023-05-10T18:47:23.841Z,18.90
2023-05-10T18:49:52.684Z,18.83
2023-05-10T18:52:21.211Z,18.75
2023-05-10T18:54:51.036Z,18.68
2023-05-10T18:57:21.117Z,18.60
2023-05-10T18:59:50.188Z,18.56
2023-05-10T19:02:18.908Z,18.54
2023-05-10T19:04:47.289Z,18.52
2023-05-10T19:07:15.842Z,18.50
2023-05-10T19:09:44.362Z,18.43
2023-05-10T19:12:13.920Z,18.38
2023-05-10T19:14:42.409Z,18.27
2023-05-10T19:17:11.827Z,18.16
2023-05-10T19:19:40.452Z,18.07
2023-05-10T19:22:09.014Z,17.97
2023-05-10T19:24:37.489Z,17.85
2023-05-10T19:27:05.713Z,17.74
2023-05-10T19:29:35.397Z,17.65
2023-05-10T19:32:04.428Z,17.51
2023-05-10T19:34:33.015Z,17.40
2023-05-10T19:37:01.207Z,17.30
2023-05-10T19:39:30.829Z,17.20
2023-05-10T19:41:59.664Z,17.11
2023-05-10T19:44:28.257Z,17.04
2023-05-10T19:46:58.262Z,16.95
2023-05-10T19:49:26.988Z,16.86
2023-05-10T19:51:55.496Z,16.78
2023-05-10T19:54:24.080Z,16.71
2023-05-10T19:56:52.622Z,16.63
2023-05-10T19:59:21.137Z,16.57
2023-05-10T20:01:49.656Z,16.51
2023-05-10T20:04:21.566Z,16.46
2023-05-10T20:06:49.837Z,16.36
2023-05-10T20:09:18.326Z,16.32
2023-05-10T20:11:46.941Z,16.27
2023-05-10T20:14:15.419Z,16.22
2023-05-10T20:16:43.944Z,16.18
2023-05-10T20:19:12.584Z,16.14
2023-05-10T20:21:42.726Z,16.09
2023-05-10T20:24:11.353Z,16.06
2023-05-10T20:26:39.894Z,16.01
2023-05-10T20:29:09.343Z,15.96
2023-05-10T20:31:37.889Z,15.92
2023-05-10T20:34:06.508Z,15.88
2023-05-10T20:36:35.018Z,15.82
2023-05-10T20:39:04.624Z,15.80
2023-05-10T20:41:33.141Z,15.74
2023-05-10T20:44:01.652Z,15.68
2023-05-10T20:46:30.337Z,15.64
2023-05-10T20:48:59.508Z,15.59
2023-05-10T20:51:29.901Z,15.55
2023-05-10T20:54:01.676Z,15.49
2023-05-10T20:56:31.347Z,15.44
2023-05-10T20:58:59.843Z,15.37
2023-05-10T21:01:28.481Z,15.32
2023-05-10T21:03:57.011Z,15.28
2023-05-10T21:06:25.278Z,15.23
2023-05-10T21:08:53.507Z,15.18
2023-05-10T21:11:22.396Z,15.12
2023-05-10T21:13:52.459Z,15.11
2023-05-10T21:16:21.056Z,15.03
2023-05-10T21:18:49.728Z,14.99
2023-05-10T21:21:18.291Z,14.95
2023-05-10T21:23:47.733Z,14.90
2023-05-10T21:26:16.938Z,14.85
2023-05-10T21:28:45.907Z,14.81
2023-05-10T21:31:16.028Z,14.78
2023-05-10T21:33:45.644Z,14.73
2023-05-10T21:36:14.254Z,14.69
2023-05-10T21:38:44.391Z,14.66
2023-05-10T21:41:12.791Z,14.63
2023-05-10T21:43:41.513Z,14.60
2023-05-10T21:46:10.284Z,14.58
2023-05-10T21:48:39.899Z,14.54
2023-05-10T21:51:08.414Z,14.48
2023-05-10T21:53:38.915Z,14.45
2023-05-10T21:56:08.227Z,14.41
2023-05-10T21:58:36.739Z,14.39
2023-05-10T22:01:05.396Z,14.36
2023-05-10T22:03:34.025Z,14.34
2023-05-10T22:06:03.699Z,14.32
2023-05-10T22:08:32.251Z,14.30
2023-05-10T22:11:00.769Z,14.29
2023-05-10T22:13:28.935Z,14.27
2023-05-10T22:15:57.496Z,14.26
2023-05-10T22:18:26.068Z,14.24
2023-05-10T22:20:54.658Z,14.24
2023-05-10T22:23:24.259Z,14.22
2023-05-10T22:25:52.797Z,14.23
2023-05-10T22:28:21.321Z,14.22
2023-05-10T22:30:49.927Z,14.22
2023-05-10T22:33:18.670Z,14.21
2023-05-10T22:35:47.271Z,14.20
2023-05-10T22:38:15.850Z,14.18
2023-05-10T22:40:45.534Z,14.20
2023-05-10T22:43:14.036Z,14.19
2023-05-10T22:45:42.235Z,14.15
2023-05-10T22:48:10.676Z,14.13
2023-05-10T22:50:39.252Z,14.12
2023-05-10T22:53:07.768Z,14.08
2023-05-10T22:55:37.123Z,14.06
2023-05-10T22:58:07.007Z,14.04
2023-05-10T23:00:35.611Z,13.99
2023-05-10T23:03:04.555Z,13.95
2023-05-10T23:05:33.309Z,13.90
2023-05-10T23:08:01.938Z,13.87
2023-05-10T23:10:32.173Z,13.82
2023-05-10T23:13:00.387Z,13.79
2023-05-10T23:15:29.949Z,13.76
2023-05-10T23:18:00.920Z,13.70
2023-05-10T23:20:29.896Z,13.65
2023-05-10T23:22:58.426Z,13.60
2023-05-10T23:25:27.227Z,13.58
2023-05-10T23:27:55.449Z,13.53
2023-05-10T23:30:24.007Z,13.51
2023-05-10T23:32:53.576Z,13.49
2023-05-10T23:35:22.179Z,13.44
2023-05-10T23:37:50.688Z,13.41
2023-05-10T23:40:19.545Z,13.37
2023-05-10T23:42:48.537Z,13.35
2023-05-10T23:45:17.217Z,13.35
2023-05-10T23:47:45.842Z,13.32
2023-05-10T23:50:15.817Z,13.31
2023-05-10T23:52:44.394Z,13.27
2023-05-10T23:55:13.268Z,13.22
2023-05-10T23:57:41.797Z,13.20
